createdAt,value
2018-07-13T00:00:13.171Z,0
2018-07-13T00:01:13.748Z,0
2018-07-13T00:02:14.324Z,0
2018-07-13T00:03:14.886Z,0
2018-07-13T00:04:15.449Z,0
2018-07-13T00:05:16.012Z,0
2018-07-13T00:06:16.576Z,0
2018-07-13T00:07:17.138Z,0
2018-07-13T00:08:17.683Z,0
2018-07-13T00:09:18.241Z,0
2018-07-13T00:10:18.793Z,0
2018-07-13T00:11:19.347Z,0
2018-07-13T00:12:19.901Z,0
2018-07-13T00:13:20.454Z,0
2018-07-13T00:14:21.009Z,0
2018-07-13T00:15:21.567Z,0
2018-07-13T00:16:22.125Z,0
2018-07-13T00:17:22.679Z,0
2018-07-13T00:18:23.239Z,0
2018-07-13T00:19:23.793Z,0
2018-07-13T00:20:24.349Z,0
2018-07-13T00:21:24.904Z,0
2018-07-13T00:22:25.452Z,0
2018-07-13T00:23:26.011Z,0
2018-07-13T00:24:26.564Z,0
2018-07-13T00:25:27.122Z,0
2018-07-13T00:26:27.662Z,0
2018-07-13T00:27:28.213Z,0
2018-07-13T00:28:28.762Z,0
2018-07-13T00:29:29.319Z,0
2018-07-13T00:30:29.874Z,0
2018-07-13T00:31:30.433Z,0
2018-07-13T00:32:30.993Z,0
2018-07-13T00:33:31.545Z,0
2018-07-13T00:34:32.100Z,0
2018-07-13T00:35:32.651Z,0
2018-07-13T00:36:33.207Z,0
2018-07-13T00:37:33.760Z,0
2018-07-13T00:38:34.313Z,0
2018-07-13T00:39:34.872Z,0
2018-07-13T00:40:35.431Z,0
2018-07-13T00:41:35.985Z,0
2018-07-13T00:42:36.539Z,0
2018-07-13T00:43:37.095Z,0
2018-07-13T00:44:37.652Z,0
2018-07-13T00:45:38.206Z,0
2018-07-13T00:46:38.763Z,0
2018-07-13T00:47:39.310Z,0
2018-07-13T00:48:39.865Z,0
2018-07-13T00:49:40.419Z,0
2018-07-13T00:50:40.973Z,0
2018-07-13T00:51:41.532Z,0
2018-07-13T00:52:42.093Z,0
2018-07-13T00:53:42.639Z,0
2018-07-13T00:54:43.196Z,0
2018-07-13T00:55:43.743Z,0
2018-07-13T00:56:44.286Z,0
2018-07-13T00:57:44.844Z,0
2018-07-13T00:58:45.401Z,0
2018-07-13T00:59:45.952Z,0
2018-07-13T01:00:46.505Z,0
2018-07-13T01:01:47.058Z,0
2018-07-13T01:02:47.615Z,0
2018-07-13T01:03:48.168Z,0
2018-07-13T01:04:48.722Z,0
2018-07-13T01:05:49.278Z,0
2018-07-13T01:06:49.832Z,0
2018-07-13T01:07:50.378Z,0
2018-07-13T01:08:50.926Z,0
2018-07-13T01:09:51.476Z,0
2018-07-13T01:10:52.033Z,0
2018-07-13T01:11:52.581Z,0
2018-07-13T01:12:53.133Z,0
2018-07-13T01:13:53.691Z,0
2018-07-13T01:14:54.246Z,0
2018-07-13T01:15:54.801Z,0
2018-07-13T01:16:55.352Z,0
2018-07-13T01:17:55.907Z,0
2018-07-13T01:18:56.461Z,0
2018-07-13T01:19:57.010Z,0
2018-07-13T01:20:57.560Z,0
2018-07-13T01:21:58.112Z,0
2018-07-13T01:22:58.670Z,0
2018-07-13T01:23:59.226Z,0
2018-07-13T01:24:59.782Z,0
2018-07-13T01:26:00.334Z,0
2018-07-13T01:27:00.883Z,0
2018-07-13T01:28:01.436Z,0
2018-07-13T01:29:01.989Z,0
2018-07-13T01:30:02.535Z,0
2018-07-13T01:31:03.090Z,0
2018-07-13T01:32:03.643Z,0
2018-07-13T01:33:04.198Z,0
2018-07-13T01:34:04.752Z,0
2018-07-13T01:35:05.305Z,0
2018-07-13T01:36:05.852Z,0
2018-07-13T01:37:06.406Z,0
2018-07-13T01:38:06.948Z,0
2018-07-13T01:39:07.506Z,0
2018-07-13T01:40:08.055Z,0
2018-07-13T01:41:08.605Z,0
2018-07-13T01:42:09.163Z,0
2018-07-13T01:43:09.709Z,0
2018-07-13T01:44:10.262Z,0
2018-07-13T01:45:10.811Z,0
2018-07-13T01:46:11.358Z,0
2018-07-13T01:47:11.905Z,0
2018-07-13T01:48:12.455Z,0
2018-07-13T01:49:13.007Z,0
2018-07-13T01:50:13.559Z,0
2018-07-13T01:51:14.107Z,0
2018-07-13T01:52:14.658Z,0
2018-07-13T01:53:15.211Z,0
2018-07-13T01:54:15.760Z,0
2018-07-13T01:55:16.311Z,0
2018-07-13T01:56:16.864Z,0
2018-07-13T01:57:17.414Z,0
2018-07-13T01:58:17.969Z,0
2018-07-13T01:59:18.522Z,0
2018-07-13T02:00:19.077Z,0
2018-07-13T02:01:19.629Z,0
2018-07-13T02:02:20.183Z,0
2018-07-13T02:03:20.739Z,0
2018-07-13T02:04:21.292Z,0
2018-07-13T02:05:21.844Z,0
2018-07-13T02:06:22.389Z,0
2018-07-13T02:07:22.938Z,0
2018-07-13T02:08:23.492Z,0
2018-07-13T02:09:24.048Z,0
2018-07-13T02:10:24.600Z,0
2018-07-13T02:11:25.161Z,0
2018-07-13T02:12:25.714Z,0
2018-07-13T02:13:26.288Z,0
2018-07-13T02:14:26.823Z,0
2018-07-13T02:15:27.389Z,0
2018-07-13T02:16:27.985Z,0
2018-07-13T02:17:28.486Z,0
2018-07-13T02:18:29.040Z,0
2018-07-13T02:19:29.586Z,0
2018-07-13T02:20:30.145Z,0
2018-07-13T02:21:30.699Z,0
2018-07-13T02:22:31.255Z,0
2018-07-13T02:23:31.807Z,0
2018-07-13T02:24:32.358Z,0
2018-07-13T02:25:32.912Z,0
2018-07-13T02:26:33.467Z,0
2018-07-13T02:27:34.023Z,0
2018-07-13T02:28:34.582Z,0
2018-07-13T02:29:35.169Z,0
2018-07-13T02:30:35.689Z,0
2018-07-13T02:31:36.243Z,0
2018-07-13T02:32:36.805Z,0
2018-07-13T02:33:37.348Z,0
2018-07-13T02:34:37.903Z,0
2018-07-13T02:35:38.459Z,0
2018-07-13T02:36:39.017Z,0
2018-07-13T02:37:39.568Z,0
2018-07-13T02:38:40.120Z,0
2018-07-13T02:39:40.672Z,0
2018-07-13T02:40:41.223Z,0
2018-07-13T02:41:41.781Z,0
2018-07-13T02:42:42.334Z,0
2018-07-13T02:43:42.887Z,0
2018-07-13T02:44:43.446Z,0
2018-07-13T02:45:44.000Z,0
2018-07-13T02:46:44.555Z,0
2018-07-13T02:47:45.109Z,0
2018-07-13T02:48:45.672Z,0
2018-07-13T02:49:46.207Z,0
2018-07-13T02:50:46.760Z,0
2018-07-13T02:51:47.312Z,0
2018-07-13T02:52:47.864Z,0
2018-07-13T02:53:48.417Z,0
2018-07-13T02:54:48.974Z,0
2018-07-13T02:55:49.528Z,0
2018-07-13T02:56:50.082Z,0
2018-07-13T02:57:50.635Z,0
2018-07-13T02:58:51.193Z,0
2018-07-13T02:59:51.748Z,0
2018-07-13T03:00:52.298Z,0
2018-07-13T03:01:52.852Z,0
2018-07-13T03:02:53.409Z,0
2018-07-13T03:03:53.962Z,0
2018-07-13T03:04:54.512Z,0
2018-07-13T03:05:55.069Z,0
2018-07-13T03:06:55.686Z,0
2018-07-13T03:07:56.182Z,0
2018-07-13T03:08:56.734Z,0
2018-07-13T03:09:57.285Z,0
2018-07-13T03:10:57.841Z,0
2018-07-13T03:11:58.403Z,0
2018-07-13T03:12:58.956Z,0
2018-07-13T03:13:59.512Z,0
2018-07-13T03:15:00.078Z,0
2018-07-13T03:16:00.627Z,0
2018-07-13T03:17:01.176Z,0
2018-07-13T03:18:01.732Z,0
2018-07-13T03:19:02.286Z,0
2018-07-13T03:20:02.839Z,0
2018-07-13T03:21:03.392Z,0
2018-07-13T03:22:03.999Z,0
2018-07-13T03:23:04.496Z,0
2018-07-13T03:24:05.046Z,5
2018-07-13T03:25:05.600Z,5
2018-07-13T03:26:06.155Z,5
2018-07-13T03:27:06.709Z,5
2018-07-13T03:28:07.266Z,5
2018-07-13T03:29:07.824Z,5
2018-07-13T03:30:08.378Z,5
2018-07-13T03:31:08.935Z,5
2018-07-13T03:32:09.504Z,10
2018-07-13T03:33:10.048Z,10
2018-07-13T03:34:10.607Z,10
2018-07-13T03:35:11.167Z,10
2018-07-13T03:36:11.722Z,10
2018-07-13T03:37:12.278Z,10
2018-07-13T03:38:12.833Z,15
2018-07-13T03:39:13.397Z,15
2018-07-13T03:40:13.950Z,15
2018-07-13T03:41:14.510Z,15
2018-07-13T03:42:15.069Z,20
2018-07-13T03:43:15.621Z,20
2018-07-13T03:44:16.183Z,20
2018-07-13T03:45:16.736Z,20
2018-07-13T03:46:17.296Z,25
2018-07-13T03:47:17.848Z,25
2018-07-13T03:48:18.438Z,25
2018-07-13T03:49:18.963Z,30
2018-07-13T03:50:19.518Z,30
2018-07-13T03:51:20.078Z,30
2018-07-13T03:52:20.634Z,35
2018-07-13T03:53:21.192Z,35
2018-07-13T03:54:21.748Z,35
2018-07-13T03:55:22.302Z,40
2018-07-13T03:56:22.863Z,40
2018-07-13T03:57:23.411Z,40
2018-07-13T03:58:23.969Z,45
2018-07-13T03:59:24.529Z,45
2018-07-13T04:00:25.126Z,45
2018-07-13T04:01:25.645Z,50
2018-07-13T04:02:26.218Z,50
2018-07-13T04:03:26.773Z,50
2018-07-13T04:04:27.331Z,55
2018-07-13T04:05:27.889Z,55
2018-07-13T04:06:28.497Z,60
2018-07-13T04:07:29.004Z,60
2018-07-13T04:08:29.558Z,60
2018-07-13T04:09:30.118Z,65
2018-07-13T04:10:30.678Z,65
2018-07-13T04:11:31.235Z,70
2018-07-13T04:12:31.791Z,70
2018-07-13T04:13:32.354Z,70
2018-07-13T04:14:32.928Z,70
2018-07-13T04:15:33.458Z,70
2018-07-13T04:16:34.019Z,70
2018-07-13T04:17:34.571Z,75
2018-07-13T04:18:35.132Z,75
2018-07-13T04:19:35.691Z,80
2018-07-13T04:20:36.248Z,80
2018-07-13T04:21:36.803Z,85
2018-07-13T04:22:37.365Z,85
2018-07-13T04:23:37.921Z,85
2018-07-13T04:24:38.477Z,90
2018-07-13T04:25:39.036Z,90
2018-07-13T04:26:39.603Z,95
2018-07-13T04:27:40.176Z,95
2018-07-13T04:28:40.748Z,95
2018-07-13T04:29:41.285Z,100
2018-07-13T04:30:41.850Z,100
2018-07-13T04:31:42.411Z,105
2018-07-13T04:32:42.964Z,105
2018-07-13T04:33:43.515Z,110
2018-07-13T04:34:44.079Z,110
2018-07-13T04:35:44.630Z,110
2018-07-13T04:36:45.198Z,115
2018-07-13T04:37:45.752Z,115
2018-07-13T04:38:46.334Z,120
2018-07-13T04:39:46.882Z,120
2018-07-13T04:40:47.456Z,125
2018-07-13T04:41:48.031Z,125
2018-07-13T04:42:48.560Z,130
2018-07-13T04:43:49.125Z,130
2018-07-13T04:44:49.747Z,130
2018-07-13T04:45:50.284Z,135
2018-07-13T04:46:50.860Z,135
2018-07-13T04:47:51.415Z,140
2018-07-13T04:48:51.979Z,140
2018-07-13T04:49:53.047Z,140
2018-07-13T04:50:53.108Z,145
2018-07-13T04:51:53.658Z,150
2018-07-13T04:52:54.218Z,145
2018-07-13T04:53:54.781Z,150
2018-07-13T04:54:55.345Z,150
2018-07-13T04:55:55.909Z,155
2018-07-13T04:56:56.494Z,160
2018-07-13T04:57:57.068Z,180
2018-07-13T04:58:57.625Z,210
2018-07-13T04:59:58.195Z,230
2018-07-13T05:00:58.754Z,235
2018-07-13T05:01:59.337Z,240
2018-07-13T05:02:59.888Z,245
2018-07-13T05:04:00.543Z,245
2018-07-13T05:05:01.090Z,245
2018-07-13T05:06:01.655Z,230
2018-07-13T05:07:02.212Z,210
2018-07-13T05:08:02.774Z,230
2018-07-13T05:09:03.341Z,265
2018-07-13T05:10:03.904Z,275
2018-07-13T05:11:04.469Z,280
2018-07-13T05:12:05.032Z,285
2018-07-13T05:13:05.626Z,290
2018-07-13T05:14:06.199Z,295
2018-07-13T05:15:06.759Z,300
2018-07-13T05:16:07.320Z,305
2018-07-13T05:17:07.879Z,310
2018-07-13T05:18:08.443Z,310
2018-07-13T05:19:09.008Z,315
2018-07-13T05:20:09.580Z,320
2018-07-13T05:21:10.155Z,310
2018-07-13T05:22:10.712Z,260
2018-07-13T05:23:11.279Z,230
2018-07-13T05:24:11.844Z,240
2018-07-13T05:25:12.411Z,295
2018-07-13T05:26:12.975Z,345
2018-07-13T05:27:13.546Z,355
2018-07-13T05:28:14.113Z,365
2018-07-13T05:29:14.681Z,365
2018-07-13T05:30:15.251Z,370
2018-07-13T05:31:15.821Z,370
2018-07-13T05:32:16.391Z,375
2018-07-13T05:33:16.958Z,380
2018-07-13T05:34:17.527Z,380
2018-07-13T05:35:18.096Z,360
2018-07-13T05:36:18.662Z,315
2018-07-13T05:37:19.233Z,270
2018-07-13T05:38:19.849Z,300
2018-07-13T05:39:20.376Z,360
2018-07-13T05:40:20.943Z,410
2018-07-13T05:41:21.515Z,420
2018-07-13T05:42:22.077Z,435
2018-07-13T05:43:22.644Z,435
2018-07-13T05:44:23.285Z,445
2018-07-13T05:45:23.857Z,445
2018-07-13T05:46:24.427Z,445
2018-07-13T05:47:25.014Z,460
2018-07-13T05:48:25.573Z,465
2018-07-13T05:49:26.150Z,465
2018-07-13T05:50:26.712Z,470
2018-07-13T05:51:27.338Z,475
2018-07-13T05:52:27.924Z,490
2018-07-13T05:53:28.539Z,490
2018-07-13T05:54:29.109Z,505
2018-07-13T05:55:29.685Z,515
2018-07-13T05:56:30.265Z,520
2018-07-13T05:57:30.836Z,520
2018-07-13T05:58:31.407Z,515
2018-07-13T05:59:31.983Z,535
2018-07-13T06:00:32.568Z,480
2018-07-13T06:01:33.143Z,570
2018-07-13T06:02:33.717Z,580
2018-07-13T06:03:34.288Z,515
2018-07-13T06:04:34.854Z,565
2018-07-13T06:05:35.429Z,585
2018-07-13T06:06:36.006Z,585
2018-07-13T06:07:36.581Z,585
2018-07-13T06:08:37.153Z,540
2018-07-13T06:09:37.783Z,610
2018-07-13T06:10:38.292Z,605
2018-07-13T06:11:38.870Z,545
2018-07-13T06:12:39.447Z,615
2018-07-13T06:13:40.007Z,635
2018-07-13T06:14:40.612Z,635
2018-07-13T06:15:41.150Z,655
2018-07-13T06:16:41.723Z,655
2018-07-13T06:17:42.298Z,655
2018-07-13T06:18:42.868Z,665
2018-07-13T06:19:43.439Z,610
2018-07-13T06:20:44.011Z,650
2018-07-13T06:21:44.582Z,635
2018-07-13T06:22:45.173Z,535
2018-07-13T06:23:45.740Z,465
2018-07-13T06:24:46.310Z,555
2018-07-13T06:25:46.876Z,660
2018-07-13T06:26:47.455Z,690
2018-07-13T06:27:48.031Z,705
2018-07-13T06:28:48.610Z,705
2018-07-13T06:29:49.184Z,720
2018-07-13T06:30:49.759Z,715
2018-07-13T06:31:50.334Z,715
2018-07-13T06:32:50.917Z,740
2018-07-13T06:33:51.492Z,745
2018-07-13T06:34:52.067Z,750
2018-07-13T06:35:52.648Z,750
2018-07-13T06:36:53.219Z,760
2018-07-13T06:37:53.794Z,770
2018-07-13T06:38:54.372Z,780
2018-07-13T06:39:54.951Z,780
2018-07-13T06:40:55.530Z,790
2018-07-13T06:41:56.105Z,795
2018-07-13T06:42:56.684Z,805
2018-07-13T06:43:57.263Z,815
2018-07-13T06:44:57.828Z,815
2018-07-13T06:45:58.397Z,830
2018-07-13T06:46:58.976Z,840
2018-07-13T06:47:59.552Z,845
2018-07-13T06:49:00.130Z,845
2018-07-13T06:50:00.714Z,845
2018-07-13T06:51:01.295Z,865
2018-07-13T06:52:01.873Z,880
2018-07-13T06:53:02.452Z,880
2018-07-13T06:54:03.031Z,890
2018-07-13T06:55:03.615Z,905
2018-07-13T06:56:04.186Z,935
2018-07-13T06:57:04.760Z,930
2018-07-13T06:58:05.337Z,930
2018-07-13T06:59:05.940Z,935
2018-07-13T07:00:06.505Z,950
2018-07-13T07:01:07.082Z,960
2018-07-13T07:02:07.665Z,960
2018-07-13T07:03:08.246Z,975
2018-07-13T07:04:08.830Z,985
2018-07-13T07:05:09.407Z,980
2018-07-13T07:06:09.986Z,995
2018-07-13T07:07:10.564Z,1005
2018-07-13T07:08:11.139Z,1020
2018-07-13T07:09:11.724Z,1030
2018-07-13T07:10:12.297Z,1040
2018-07-13T07:11:13.099Z,1040
2018-07-13T07:12:13.674Z,1040
2018-07-13T07:13:14.260Z,1050
2018-07-13T07:14:14.842Z,1065
2018-07-13T07:15:15.429Z,1075
2018-07-13T07:16:16.009Z,1095
2018-07-13T07:17:16.597Z,1100
2018-07-13T07:18:17.174Z,1100
2018-07-13T07:19:17.760Z,1100
2018-07-13T07:20:18.345Z,1105
2018-07-13T07:21:18.938Z,1105
2018-07-13T07:22:19.502Z,1115
2018-07-13T07:23:20.082Z,1125
2018-07-13T07:24:20.715Z,1140
2018-07-13T07:25:21.248Z,1150
2018-07-13T07:26:21.816Z,1165
2018-07-13T07:27:22.397Z,1170
2018-07-13T07:28:22.986Z,1165
2018-07-13T07:29:23.563Z,1180
2018-07-13T07:30:24.137Z,1185
2018-07-13T07:31:24.711Z,1195
2018-07-13T07:32:25.293Z,1190
2018-07-13T07:33:25.869Z,1200
2018-07-13T07:34:26.471Z,1205
2018-07-13T07:35:27.023Z,1210
2018-07-13T07:36:27.600Z,1215
2018-07-13T07:37:28.181Z,1225
2018-07-13T07:38:28.798Z,1225
2018-07-13T07:39:29.325Z,1235
2018-07-13T07:40:29.932Z,1240
2018-07-13T07:41:30.524Z,1250
2018-07-13T07:42:31.107Z,1265
2018-07-13T07:43:31.690Z,1265
2018-07-13T07:44:32.274Z,1280
2018-07-13T07:45:32.845Z,1285
2018-07-13T07:46:33.424Z,1290
2018-07-13T07:47:34.003Z,1270
2018-07-13T07:48:34.576Z,1290
2018-07-13T07:49:35.161Z,1300
2018-07-13T07:50:35.727Z,1310
2018-07-13T07:51:36.312Z,1310
2018-07-13T07:52:36.889Z,1310
2018-07-13T07:53:37.484Z,1330
2018-07-13T07:54:38.057Z,1345
2018-07-13T07:55:38.632Z,1350
2018-07-13T07:56:39.212Z,1355
2018-07-13T07:57:39.800Z,1350
2018-07-13T07:58:40.350Z,1360
2018-07-13T07:59:40.934Z,1360
2018-07-13T08:00:41.509Z,1370
2018-07-13T08:01:42.139Z,1380
2018-07-13T08:02:42.668Z,1400
2018-07-13T08:03:43.249Z,1395
2018-07-13T08:04:43.834Z,1390
2018-07-13T08:05:44.430Z,1410
2018-07-13T08:06:45.135Z,1420
2018-07-13T08:07:45.565Z,1415
2018-07-13T08:08:46.144Z,1450
2018-07-13T08:09:46.725Z,1455
2018-07-13T08:10:47.345Z,1460
2018-07-13T08:11:47.944Z,1475
2018-07-13T08:12:48.507Z,1485
2018-07-13T08:13:49.264Z,1505
2018-07-13T08:14:49.656Z,1485
2018-07-13T08:15:50.257Z,1515
2018-07-13T08:16:50.879Z,1520
2018-07-13T08:17:51.460Z,1530
2018-07-13T08:18:52.049Z,1540
2018-07-13T08:19:52.635Z,1560
2018-07-13T08:20:53.225Z,1570
2018-07-13T08:21:53.780Z,1585
2018-07-13T08:22:54.357Z,1610
2018-07-13T08:23:54.933Z,1635
2018-07-13T08:24:55.513Z,1640
2018-07-13T08:25:56.086Z,1650
2018-07-13T08:26:56.691Z,1715
2018-07-13T08:27:57.262Z,1750
2018-07-13T08:28:57.859Z,1780
2018-07-13T08:29:58.411Z,1820
2018-07-13T08:30:58.995Z,1810
2018-07-13T08:31:59.574Z,1920
2018-07-13T08:33:00.153Z,1420
2018-07-13T08:34:00.731Z,1770
2018-07-13T08:35:01.317Z,1815
2018-07-13T08:36:01.968Z,1255
2018-07-13T08:37:02.545Z,1115
2018-07-13T08:38:03.123Z,1155
2018-07-13T08:39:03.699Z,2165
2018-07-13T08:40:04.281Z,2040
2018-07-13T08:41:04.860Z,1175
2018-07-13T08:42:05.433Z,1085
2018-07-13T08:43:06.012Z,2075
2018-07-13T08:44:06.663Z,2095
2018-07-13T08:45:07.169Z,2065
2018-07-13T08:46:07.750Z,2040
2018-07-13T08:47:08.321Z,1635
2018-07-13T08:48:08.904Z,2065
2018-07-13T08:49:09.483Z,2105
2018-07-13T08:50:10.077Z,2040
2018-07-13T08:51:10.642Z,1745
2018-07-13T08:52:11.213Z,2070
2018-07-13T08:53:11.786Z,2130
2018-07-13T08:54:12.357Z,1895
2018-07-13T08:55:12.929Z,2050
2018-07-13T08:56:13.578Z,2050
2018-07-13T08:57:14.074Z,1960
2018-07-13T08:58:14.653Z,1600
2018-07-13T08:59:15.233Z,1505
2018-07-13T09:00:15.812Z,1420
2018-07-13T09:01:16.412Z,2125
2018-07-13T09:02:17.014Z,2110
2018-07-13T09:03:17.587Z,2135
2018-07-13T09:04:18.189Z,2160
2018-07-13T09:05:18.745Z,2115
2018-07-13T09:06:19.351Z,1830
2018-07-13T09:07:19.901Z,1590
2018-07-13T09:08:20.477Z,1735
2018-07-13T09:09:21.057Z,2170
2018-07-13T09:10:21.648Z,2130
2018-07-13T09:11:22.221Z,2035
2018-07-13T09:12:22.828Z,1930
2018-07-13T09:13:23.382Z,1815
2018-07-13T09:14:23.950Z,1880
2018-07-13T09:15:24.628Z,2070
2018-07-13T09:16:25.205Z,2015
2018-07-13T09:17:25.783Z,1950
2018-07-13T09:18:26.365Z,2065
2018-07-13T09:19:27.001Z,2140
2018-07-13T09:20:27.525Z,2130
2018-07-13T09:21:28.102Z,2075
2018-07-13T09:22:28.684Z,2070
2018-07-13T09:23:29.262Z,2080
2018-07-13T09:24:29.842Z,2115
2018-07-13T09:25:30.425Z,2115
2018-07-13T09:26:31.003Z,2070
2018-07-13T09:27:31.579Z,2060
2018-07-13T09:28:32.159Z,2080
2018-07-13T09:29:32.810Z,2095
2018-07-13T09:30:33.385Z,2125
2018-07-13T09:31:33.958Z,2110
2018-07-13T09:32:34.542Z,2135
2018-07-13T09:33:35.117Z,2145
2018-07-13T09:34:35.695Z,2180
2018-07-13T09:35:36.275Z,2175
2018-07-13T09:36:36.861Z,2160
2018-07-13T09:37:37.441Z,2170
2018-07-13T09:38:38.016Z,2175
2018-07-13T09:39:38.591Z,2165
2018-07-13T09:40:39.171Z,2170
2018-07-13T09:41:39.745Z,2170
2018-07-13T09:42:40.313Z,2160
2018-07-13T09:43:40.893Z,2180
2018-07-13T09:44:41.473Z,2185
2018-07-13T09:45:42.048Z,2210
2018-07-13T09:46:42.687Z,2180
2018-07-13T09:47:43.213Z,2185
2018-07-13T09:48:43.791Z,2225
2018-07-13T09:49:44.364Z,2225
2018-07-13T09:50:44.934Z,2260
2018-07-13T09:51:45.521Z,2265
2018-07-13T09:52:46.140Z,2280
2018-07-13T09:53:46.813Z,2250
2018-07-13T09:54:47.286Z,2240
2018-07-13T09:55:47.866Z,2265
2018-07-13T09:56:48.443Z,2255
2018-07-13T09:57:49.032Z,2275
2018-07-13T09:58:49.596Z,2310
2018-07-13T09:59:50.178Z,2315
2018-07-13T10:00:50.850Z,2345
2018-07-13T10:01:51.355Z,2355
2018-07-13T10:02:51.938Z,2365
2018-07-13T10:03:52.511Z,2345
2018-07-13T10:04:53.101Z,2355
2018-07-13T10:05:53.672Z,2380
2018-07-13T10:06:54.248Z,2380
2018-07-13T10:07:54.877Z,2375
2018-07-13T10:08:55.454Z,2385
2018-07-13T10:09:56.028Z,2360
2018-07-13T10:10:56.611Z,2370
2018-07-13T10:11:57.171Z,2390
2018-07-13T10:12:57.743Z,2415
2018-07-13T10:13:58.316Z,2415
2018-07-13T10:14:58.889Z,2440
2018-07-13T10:15:59.460Z,2475
2018-07-13T10:17:00.039Z,2485
2018-07-13T10:18:00.618Z,2460
2018-07-13T10:19:01.195Z,2445
2018-07-13T10:20:01.782Z,2460
2018-07-13T10:21:02.352Z,2495
2018-07-13T10:22:03.018Z,2530
2018-07-13T10:23:03.501Z,2535
2018-07-13T10:24:04.103Z,2515
2018-07-13T10:25:04.668Z,2475
2018-07-13T10:26:05.241Z,2465
2018-07-13T10:27:05.823Z,2490
2018-07-13T10:28:06.393Z,2550
2018-07-13T10:29:07.040Z,2575
2018-07-13T10:30:07.558Z,2570
2018-07-13T10:31:08.142Z,2530
2018-07-13T10:32:08.713Z,2540
2018-07-13T10:33:09.288Z,2595
2018-07-13T10:34:09.852Z,2625
2018-07-13T10:35:10.432Z,2655
2018-07-13T10:36:11.018Z,2655
2018-07-13T10:37:11.581Z,2665
2018-07-13T10:38:12.158Z,2670
2018-07-13T10:39:12.821Z,2680
2018-07-13T10:40:13.313Z,2655
2018-07-13T10:41:13.891Z,2675
2018-07-13T10:42:14.466Z,2675
2018-07-13T10:43:15.065Z,2690
2018-07-13T10:44:15.633Z,2705
2018-07-13T10:45:16.205Z,2700
2018-07-13T10:46:16.786Z,2720
2018-07-13T10:47:17.373Z,2710
2018-07-13T10:48:17.967Z,2720
2018-07-13T10:49:18.539Z,2680
2018-07-13T10:50:19.117Z,2735
2018-07-13T10:51:19.711Z,2735
2018-07-13T10:52:20.285Z,2735
2018-07-13T10:53:20.874Z,2770
2018-07-13T10:54:21.456Z,2770
2018-07-13T10:55:22.106Z,2750
2018-07-13T10:56:22.691Z,2745
2018-07-13T10:57:23.262Z,2750
2018-07-13T10:58:23.839Z,2745
2018-07-13T10:59:24.410Z,2720
2018-07-13T11:00:24.986Z,2740
2018-07-13T11:01:25.565Z,2750
2018-07-13T11:02:26.143Z,2805
2018-07-13T11:03:26.720Z,2820
2018-07-13T11:04:27.291Z,2780
2018-07-13T11:05:27.967Z,2760
2018-07-13T11:06:28.448Z,2780
2018-07-13T11:07:29.026Z,2810
2018-07-13T11:08:29.609Z,2840
2018-07-13T11:09:30.192Z,2885
2018-07-13T11:10:30.770Z,2885
2018-07-13T11:11:31.354Z,2890
2018-07-13T11:12:31.931Z,2910
2018-07-13T11:13:32.533Z,2905
2018-07-13T11:14:33.079Z,2905
2018-07-13T11:15:33.655Z,2845
2018-07-13T11:16:34.237Z,2825
2018-07-13T11:17:34.819Z,2805
2018-07-13T11:18:35.387Z,2815
2018-07-13T11:19:35.968Z,2780
2018-07-13T11:20:36.582Z,2770
2018-07-13T11:21:37.130Z,2780
2018-07-13T11:22:37.711Z,2770
2018-07-13T11:23:38.596Z,2635
2018-07-13T11:24:39.074Z,2680
2018-07-13T11:25:39.639Z,2725
2018-07-13T11:26:40.222Z,2720
2018-07-13T11:27:40.800Z,2650
2018-07-13T11:28:41.380Z,2695
2018-07-13T11:29:41.982Z,2725
2018-07-13T11:30:42.522Z,2785
2018-07-13T11:31:43.105Z,2770
2018-07-13T11:32:43.684Z,2790
2018-07-13T11:33:44.264Z,2755
2018-07-13T11:34:44.852Z,2735
2018-07-13T11:35:45.469Z,2730
2018-07-13T11:36:46.083Z,2700
2018-07-13T11:37:46.626Z,2665
2018-07-13T11:38:47.195Z,2660
2018-07-13T11:39:47.764Z,2675
2018-07-13T11:40:48.341Z,2735
2018-07-13T11:41:48.922Z,2750
2018-07-13T11:42:49.502Z,2770
2018-07-13T11:43:50.079Z,2760
2018-07-13T11:44:50.661Z,2775
2018-07-13T11:45:51.233Z,2820
2018-07-13T11:46:51.807Z,2830
2018-07-13T11:47:52.384Z,2830
2018-07-13T11:48:52.962Z,2845
2018-07-13T11:49:53.554Z,2905
2018-07-13T11:50:54.133Z,2925
2018-07-13T11:51:54.714Z,2975
2018-07-13T11:52:55.291Z,2995
2018-07-13T11:53:55.863Z,3020
2018-07-13T11:54:56.442Z,3000
2018-07-13T11:55:57.023Z,3015
2018-07-13T11:56:57.597Z,2970
2018-07-13T11:57:58.174Z,2965
2018-07-13T11:58:58.757Z,2975
2018-07-13T11:59:59.338Z,2995
2018-07-13T12:00:59.917Z,2345
2018-07-13T12:02:00.489Z,910
2018-07-13T12:03:01.063Z,3065
2018-07-13T12:04:01.640Z,3050
2018-07-13T12:05:02.215Z,2930
2018-07-13T12:06:02.793Z,3115
2018-07-13T12:07:03.373Z,1915
2018-07-13T12:08:03.943Z,3080
2018-07-13T12:09:04.518Z,835
2018-07-13T12:10:05.097Z,810
2018-07-13T12:11:05.669Z,2955
2018-07-13T12:12:06.250Z,3250
2018-07-13T12:13:06.819Z,3085
2018-07-13T12:14:07.398Z,3395
2018-07-13T12:15:07.991Z,3245
2018-07-13T12:16:08.568Z,3005
2018-07-13T12:17:09.147Z,3325
2018-07-13T12:18:09.730Z,3005
2018-07-13T12:19:10.315Z,2870
2018-07-13T12:20:10.887Z,2765
2018-07-13T12:21:11.474Z,2700
2018-07-13T12:22:12.043Z,2755
2018-07-13T12:23:12.675Z,2780
2018-07-13T12:24:13.192Z,2885
2018-07-13T12:25:13.760Z,3280
2018-07-13T12:26:14.334Z,3520
2018-07-13T12:27:14.911Z,2855
2018-07-13T12:28:15.492Z,2575
2018-07-13T12:29:16.081Z,3135
2018-07-13T12:30:16.651Z,2910
2018-07-13T12:31:17.238Z,3015
2018-07-13T12:32:17.847Z,3040
2018-07-13T12:33:18.395Z,2755
2018-07-13T12:34:18.978Z,2840
2018-07-13T12:35:19.552Z,2810
2018-07-13T12:36:20.135Z,1500
2018-07-13T12:37:20.719Z,2505
2018-07-13T12:38:21.292Z,3315
2018-07-13T12:39:21.874Z,2625
2018-07-13T12:40:22.456Z,3100
2018-07-13T12:41:23.037Z,3205
2018-07-13T12:42:23.618Z,3245
2018-07-13T12:43:24.196Z,3250
2018-07-13T12:44:24.774Z,3215
2018-07-13T12:45:25.353Z,3160
2018-07-13T12:46:25.936Z,3165
2018-07-13T12:47:26.513Z,3155
2018-07-13T12:48:27.087Z,3200
2018-07-13T12:49:27.669Z,3210
2018-07-13T12:50:28.248Z,3240
2018-07-13T12:51:28.828Z,3280
2018-07-13T12:52:29.440Z,3335
2018-07-13T12:53:30.012Z,3335
2018-07-13T12:54:30.623Z,3305
2018-07-13T12:55:31.177Z,3230
2018-07-13T12:56:31.755Z,3130
2018-07-13T12:57:32.339Z,3210
2018-07-13T12:58:32.918Z,1925
2018-07-13T12:59:33.610Z,2005
2018-07-13T13:00:34.068Z,2035
2018-07-13T13:01:34.647Z,3225
2018-07-13T13:02:35.224Z,3230
2018-07-13T13:03:35.815Z,3115
2018-07-13T13:04:36.385Z,2605
2018-07-13T13:05:36.994Z,1875
2018-07-13T13:06:37.546Z,1345
2018-07-13T13:07:38.113Z,1205
2018-07-13T13:08:38.687Z,1320
2018-07-13T13:09:39.259Z,1970
2018-07-13T13:10:39.840Z,2610
2018-07-13T13:11:40.414Z,3000
2018-07-13T13:12:41.001Z,3270
2018-07-13T13:13:41.580Z,2980
2018-07-13T13:14:42.157Z,3130
2018-07-13T13:15:42.730Z,3250
2018-07-13T13:16:43.312Z,3105
2018-07-13T13:17:43.891Z,3185
2018-07-13T13:18:44.466Z,2885
2018-07-13T13:19:45.043Z,2560
2018-07-13T13:20:45.624Z,2495
2018-07-13T13:21:46.289Z,3235
2018-07-13T13:22:46.777Z,2575
2018-07-13T13:23:47.359Z,2800
2018-07-13T13:24:47.933Z,3185
2018-07-13T13:25:48.504Z,2450
2018-07-13T13:26:49.084Z,2370
2018-07-13T13:27:49.655Z,2970
2018-07-13T13:28:50.238Z,2505
2018-07-13T13:29:50.817Z,3220
2018-07-13T13:30:51.395Z,3095
2018-07-13T13:31:51.961Z,2340
2018-07-13T13:32:52.542Z,2110
2018-07-13T13:33:53.119Z,3200
2018-07-13T13:34:53.700Z,2060
2018-07-13T13:35:54.273Z,2185
2018-07-13T13:36:54.849Z,3040
2018-07-13T13:37:55.426Z,1960
2018-07-13T13:38:56.012Z,2545
2018-07-13T13:39:56.581Z,2190
2018-07-13T13:40:57.151Z,3020
2018-07-13T13:41:57.729Z,2680
2018-07-13T13:42:58.303Z,2540
2018-07-13T13:43:58.882Z,2485
2018-07-13T13:44:59.458Z,2555
2018-07-13T13:46:00.038Z,2430
2018-07-13T13:47:00.613Z,2800
2018-07-13T13:48:01.196Z,2835
2018-07-13T13:49:01.776Z,2230
2018-07-13T13:50:02.346Z,2125
2018-07-13T13:51:02.922Z,2905
2018-07-13T13:52:03.496Z,1890
2018-07-13T13:53:04.067Z,1970
2018-07-13T13:54:04.647Z,2280
2018-07-13T13:55:05.214Z,1570
2018-07-13T13:56:05.791Z,1770